METAR Data
IDs: Format: Raw Decoded Include TAF

Data at: 1904 UTC 25 Mar 2019

KFTW 251853Z 36013G19KT 10SM CLR 20/09 A3022 RMK AO2 SLP228 T02000094
KFTW 251753Z 36010KT 10SM CLR 19/10 A3023 RMK AO2 SLP231 T01940100 10194 20100 50010
KFTW 251653Z 01014KT 10SM CLR 18/09 A3023 RMK AO2 SLP232 T01830094
KFTW 251553Z 01010KT 10SM CLR 17/09 A3022 RMK AO2 SLP229 T01670094
KFTW 251453Z 36012KT 10SM CLR 15/09 A3020 RMK AO2 SLP221 T01500094 53025
KFTW 251353Z 36007KT 10SM CLR 13/09 A3016 RMK AO2 SLP209 T01280089
KFTW 251253Z 33003KT 9SM CLR 11/08 A3014 RMK AO2 SLP200 T01060083
KFTW 251153Z 02006KT 10SM CLR 11/09 A3012 RMK AO2 SLP195 70030 T01110089 10172 20111 51025
KFTW 251053Z 01009KT 10SM BKN060 13/09 A3011 RMK AO2 SLP189 T01280094
KFTW 250953Z 01007KT 10SM CLR 13/10 A3007 RMK AO2 SLP176 T01280100
KFTW 250853Z AUTO 02005KT 10SM CLR 14/10 A3005 RMK AO2 SLP168 T01390100 55000
KFTW 250753Z 02010KT 10SM FEW050 15/11 A3003 RMK AO2 SLP161 T01500106
KFTW 250653Z 01015G23KT 10SM OVC050 17/11 A3004 RMK AO2 SLP164 T01670111
KFTW 250609Z 35012KT 10SM OVC050 17/12 A3005 RMK AO2 LTG DSNT E AND SE T01670122
KFTW 250553Z 36011G22KT 10SM VCTS BKN050 BKN060 17/12 A3005 RMK AO2 LTG DSNT E AND SE RAB18E37 TSB35E50 SLP168 P0003 60030 T01720122 10256 20172 402780150 53012
KFTW 250541Z 35009G20KT 10SM TS FEW042 SCT049 BKN060 17/12 A3004 RMK AO2 LTG DSNT E RAB18E37 TSB35 P0003 T01720122
KFTW 250511Z 34008G17KT 10SM VCTS SCT040 BKN050 19/13 A3002 RMK AO2 LTG DSNT NE T01890128
KFTW 250453Z 32004KT 10SM FEW050 17/16 A3002 RMK AO2 SLP159 T01720156
KFTW 250353Z 00000KT 10SM SCT043 BKN070 BKN090 19/16 A3001 RMK AO2 RAE0259 TSE07 SLP157 P0001 T01890161
KFTW 250308Z 00000KT 10SM FEW023 BKN050 BKN080 19/16 A3001 RMK AO2 LTG DSNT E RAE0259 TSE07 P0000 T01890156
KFTW 250301Z 14004KT 10SM TS FEW023 BKN043 BKN060 18/16 A3001 RMK AO2 RAE0259 P0000 T01780156
KFTW 250253Z VRB05KT 1 1/4SM R16/3000VP6000FT -TSRA FEW023 BKN043 OVC080 18/16 A3001 RMK AO2 RAB40 TSB31 SLP157 P0026 60026 T01830156 53035
KFTW 250247Z VRB04G24KT 3/4SM R16/3000VP6000FT +TSRA SCT023 OVC043 19/16 A3001 RMK AO2 RAB40 TSB31 P0026
KFTW 250237Z 25007KT 10SM TS BKN043 OVC050 22/14 A3000 RMK AO2 TSB31 PRESRR T02220144
KFTW 250230Z 35003KT 10SM VCTS BKN043 BKN050 22/14 A2998 RMK AO2 LTG DSNT SW AND W T02170144
KFTW 250153Z 36005KT 10SM SCT049 BKN060 22/14 A2997 RMK AO2 LTG DSNT W SLP141 T02220139
KFTW 250113Z 00000KT 10SM CLR 23/14 A2994 RMK AO2 T02330144
KFTW 250053Z 33006KT 10SM VCTS CLR 24/14 A2993 RMK AO2 LTG DSNT NE SLP128 T02440144
KFTW 250012Z 18010KT 10SM VCTS CLR 26/15 A2991 RMK AO2 LTG DSNT NE AND NW T02560150
KFTW 242353Z 18014KT 10SM CLR 26/16 A2991 RMK AO2 LTG DSNT N AND NE SLP121 T02560156 10278 20239 56013
KFTW 242253Z 20009G20KT 10SM FEW060 27/16 A2991 RMK AO2 LTG DSNT N AND NE SLP122 T02720156
KFTW 242153Z 19014G20KT 10SM SCT055 SCT075 27/16 A2993 RMK AO2 SLP128 T02670156
KFTW 242053Z 17006KT 10SM SCT050 27/17 A2995 RMK AO2 SLP133 T02670167 56023
KFTW 241953Z 19012KT 10SM FEW046 BKN060 27/16 A2996 RMK AO2 SLP138 T02670161
KFTW 241853Z 23009G20KT 10SM FEW040 26/16 A2998 RMK AO2 SLP146 T02610161
KFTW 241753Z 19010G17KT 10SM SCT031 BKN038 24/17 A3001 RMK AO2 SLP157 T02390167 10244 20150 58008
KFTW 241734Z 24009G17KT 10SM BKN030 OVC036 24/17 A3002 RMK AO2 T02390172
KFTW 241653Z 21011KT 10SM BKN027 23/17 A3004 RMK AO2 SLP165 T02280167
KFTW 241646Z 21010KT 10SM BKN027 23/17 A3004 RMK AO2 T02280167
KFTW 241558Z 20009KT 10SM SCT015 21/17 A3004 RMK AO2 T02060167
KFTW 241553Z 20012KT 10SM BKN014 21/17 A3004 RMK AO2 SLP166 T02060167
KFTW 241453Z 19012G21KT 10SM OVC010 19/17 A3004 RMK AO2 SLP167 T01890167 51009
KFTW 241410Z 18009G16KT 9SM BKN010 18/16 A3003 RMK AO2 CIG 009V013 T01780161
KFTW 241353Z 15008KT 8SM FEW010 17/16 A3003 RMK AO2 SLP164 T01720161
KFTW 241253Z 16007KT 6SM BR CLR 15/14 A3002 RMK AO2 SLP162 T01500144
KFTW 241153Z 17007KT 10SM CLR 16/15 A3001 RMK AO2 SLP157 T01560150 10183 20156 53005
KFTW 241053Z 17008KT 10SM CLR 16/15 A3000 RMK AO2 SLP154 T01610150
KFTW 240953Z 16009KT 10SM CLR 17/15 A3000 RMK AO2 SLP152 T01670150
KFTW 240853Z 18010KT 10SM CLR 17/15 A3000 RMK AO2 SLP152 T01720150 58005
KFTW 240753Z AUTO 19009KT 10SM CLR 17/15 A3001 RMK AO2 SLP156 T01720150
KFTW 240733Z AUTO 18012G20KT 10SM FEW029 BKN037 18/15 A3001 RMK AO2 T01780150